createdAt,value
2018-09-08T00:00:30.363Z,0
2018-09-08T00:01:40.220Z,0
2018-09-08T00:02:50.361Z,0
2018-09-08T00:04:00.217Z,0
2018-09-08T00:05:10.356Z,0
2018-09-08T00:06:20.216Z,0
2018-09-08T00:07:30.065Z,0
2018-09-08T00:08:39.920Z,0
2018-09-08T00:09:49.781Z,0
2018-09-08T00:10:59.083Z,0
2018-09-08T00:12:08.939Z,0
2018-09-08T00:13:18.793Z,0
2018-09-08T00:14:28.369Z,0
2018-09-08T00:15:38.496Z,0
2018-09-08T00:16:48.620Z,0
2018-09-08T00:17:58.475Z,0
2018-09-08T00:19:08.325Z,0
2018-09-08T00:20:18.455Z,0
2018-09-08T00:21:28.629Z,0
2018-09-08T00:22:38.482Z,0
2018-09-08T00:23:48.604Z,0
2018-09-08T00:24:58.728Z,0
2018-09-08T00:26:08.858Z,0
2018-09-08T00:27:18.987Z,0
2018-09-08T00:28:29.126Z,0
2018-09-08T00:29:39.247Z,0
2018-09-08T00:30:49.419Z,0
2018-09-08T00:31:59.593Z,0
2018-09-08T00:33:08.902Z,0
2018-09-08T00:34:19.038Z,0
2018-09-08T00:35:29.163Z,0
2018-09-08T00:36:39.310Z,0
2018-09-08T00:37:49.165Z,0
2018-09-08T00:38:59.344Z,0
2018-09-08T00:40:09.377Z,0
2018-09-08T00:41:19.269Z,0
2018-09-08T00:42:29.411Z,0
2018-09-08T00:43:39.018Z,0
2018-09-08T00:44:49.147Z,0
2018-09-08T00:45:59.786Z,0
2018-09-08T00:47:09.010Z,0
2018-09-08T00:48:18.591Z,0
2018-09-08T00:49:28.448Z,0
2018-09-08T00:50:38.299Z,0
2018-09-08T00:51:48.156Z,0
2018-09-08T00:52:58.035Z,0
2018-09-08T00:54:08.162Z,0
2018-09-08T00:55:18.016Z,0
2018-09-08T00:56:28.146Z,0
2018-09-08T00:57:37.731Z,0
2018-09-08T00:58:47.587Z,0
2018-09-08T00:59:57.722Z,0
2018-09-08T01:01:07.851Z,0
2018-09-08T01:02:18.007Z,0
2018-09-08T01:03:28.152Z,0
2018-09-08T01:04:37.733Z,0
2018-09-08T01:05:47.589Z,0
2018-09-08T01:06:57.447Z,0
2018-09-08T01:08:07.306Z,0
2018-09-08T01:09:17.434Z,0
2018-09-08T01:10:27.288Z,0
2018-09-08T01:11:37.142Z,0
2018-09-08T01:12:47.268Z,0
2018-09-08T01:13:57.398Z,0
2018-09-08T01:15:06.987Z,0
2018-09-08T01:16:17.114Z,0
2018-09-08T01:17:27.239Z,0
2018-09-08T01:18:37.103Z,0
2018-09-08T01:19:46.966Z,0
2018-09-08T01:20:57.097Z,0
2018-09-08T01:22:06.945Z,0
2018-09-08T01:23:16.795Z,0
2018-09-08T01:24:26.647Z,0
2018-09-08T01:25:36.230Z,0
2018-09-08T01:26:46.364Z,0
2018-09-08T01:27:56.495Z,0
2018-09-08T01:29:06.626Z,0
2018-09-08T01:30:16.488Z,0
2018-09-08T01:31:26.629Z,0
2018-09-08T01:32:36.486Z,0
2018-09-08T01:33:46.349Z,0
2018-09-08T01:34:56.203Z,0
2018-09-08T01:36:05.782Z,0
2018-09-08T01:37:15.636Z,0
2018-09-08T01:38:24.943Z,0
2018-09-08T01:39:34.796Z,0
2018-09-08T01:40:44.924Z,0
2018-09-08T01:41:55.047Z,0
2018-09-08T01:43:04.900Z,0
2018-09-08T01:44:14.484Z,0
2018-09-08T01:45:24.612Z,0
2018-09-08T01:46:34.473Z,0
2018-09-08T01:47:44.609Z,0
2018-09-08T01:48:54.741Z,0
2018-09-08T01:50:04.866Z,0
2018-09-08T01:51:14.722Z,0
2018-09-08T01:52:24.850Z,0
2018-09-08T01:53:34.977Z,0
2018-09-08T01:54:45.105Z,0
2018-09-08T01:55:54.971Z,0
2018-09-08T01:57:05.100Z,0
2018-09-08T01:58:15.224Z,0
2018-09-08T01:59:25.126Z,0
2018-09-08T02:00:34.991Z,0
2018-09-08T02:01:45.126Z,0
2018-09-08T02:02:55.260Z,0
2018-09-08T02:04:05.394Z,0
2018-09-08T02:05:15.249Z,0
2018-09-08T02:06:25.105Z,0
2018-09-08T02:07:34.962Z,0
2018-09-08T02:08:44.813Z,0
2018-09-08T02:09:54.665Z,0
2018-09-08T02:11:04.243Z,0
2018-09-08T02:12:14.368Z,0
2018-09-08T02:13:24.493Z,0
2018-09-08T02:14:34.346Z,0
2018-09-08T02:15:44.471Z,0
2018-09-08T02:16:54.600Z,0
2018-09-08T02:18:04.452Z,0
2018-09-08T02:19:14.311Z,0
2018-09-08T02:20:24.439Z,0
2018-09-08T02:21:34.573Z,0
2018-09-08T02:22:44.709Z,0
2018-09-08T02:23:54.569Z,0
2018-09-08T02:25:04.426Z,0
2018-09-08T02:26:14.284Z,0
2018-09-08T02:27:24.133Z,0
2018-09-08T02:28:34.266Z,0
2018-09-08T02:29:44.400Z,0
2018-09-08T02:30:54.260Z,0
2018-09-08T02:32:04.401Z,0
2018-09-08T02:33:14.542Z,0
2018-09-08T02:34:24.672Z,0
2018-09-08T02:35:34.269Z,0
2018-09-08T02:36:43.847Z,0
2018-09-08T02:37:53.697Z,0
2018-09-08T02:39:05.550Z,0
2018-09-08T02:40:15.131Z,0
2018-09-08T02:41:25.269Z,0
2018-09-08T02:42:34.854Z,0
2018-09-08T02:43:44.982Z,0
2018-09-08T02:44:54.840Z,0
2018-09-08T02:46:04.982Z,0
2018-09-08T02:47:15.112Z,0
2018-09-08T02:48:24.963Z,0
2018-09-08T02:49:34.552Z,0
2018-09-08T02:50:44.689Z,0
2018-09-08T02:51:54.814Z,0
2018-09-08T02:53:04.402Z,0
2018-09-08T02:54:14.260Z,0
2018-09-08T02:55:24.121Z,0
2018-09-08T02:56:33.981Z,0
2018-09-08T02:57:43.857Z,0
2018-09-08T02:58:53.697Z,0
2018-09-08T03:00:03.555Z,0
2018-09-08T03:01:13.690Z,0
2018-09-08T03:02:22.996Z,0
2018-09-08T03:03:32.848Z,0
2018-09-08T03:04:42.710Z,0
2018-09-08T03:05:52.843Z,0
2018-09-08T03:07:02.696Z,0
2018-09-08T03:08:12.829Z,0
2018-09-08T03:09:22.964Z,0
2018-09-08T03:10:33.096Z,0
2018-09-08T03:11:42.962Z,0
2018-09-08T03:12:52.814Z,0
2018-09-08T03:14:02.943Z,0
2018-09-08T03:15:12.806Z,0
2018-09-08T03:16:22.383Z,0
2018-09-08T03:17:32.513Z,0
2018-09-08T03:18:42.637Z,0
2018-09-08T03:19:52.493Z,0
2018-09-08T03:21:02.620Z,0
2018-09-08T03:22:12.748Z,0
2018-09-08T03:23:22.601Z,0
2018-09-08T03:24:32.183Z,0
2018-09-08T03:25:42.036Z,0
2018-09-08T03:26:52.168Z,0
2018-09-08T03:28:02.299Z,0
2018-09-08T03:29:11.877Z,0
2018-09-08T03:30:21.733Z,0
2018-09-08T03:31:31.865Z,0
2018-09-08T03:32:41.718Z,0
2018-09-08T03:33:51.577Z,0
2018-09-08T03:35:01.715Z,0
2018-09-08T03:36:11.563Z,0
2018-09-08T03:37:21.421Z,0
2018-09-08T03:38:30.999Z,0
2018-09-08T03:39:41.134Z,0
2018-09-08T03:40:50.985Z,0
2018-09-08T03:42:01.113Z,0
2018-09-08T03:43:10.970Z,0
2018-09-08T03:44:20.833Z,0
2018-09-08T03:45:30.986Z,0
2018-09-08T03:46:41.112Z,0
2018-09-08T03:47:51.239Z,0
2018-09-08T03:49:01.094Z,0
2018-09-08T03:50:11.238Z,0
2018-09-08T03:51:21.093Z,0
2018-09-08T03:52:30.948Z,0
2018-09-08T03:53:41.075Z,0
2018-09-08T03:54:51.205Z,0
2018-09-08T03:56:01.332Z,0
2018-09-08T03:57:11.463Z,0
2018-09-08T03:58:21.316Z,0
2018-09-08T03:59:31.165Z,0
2018-09-08T04:00:41.353Z,0
2018-09-08T04:01:51.487Z,0
2018-09-08T04:03:01.068Z,0
2018-09-08T04:04:11.193Z,0
2018-09-08T04:05:21.044Z,0
2018-09-08T04:06:31.176Z,0
2018-09-08T04:07:41.311Z,0
2018-09-08T04:08:51.447Z,0
2018-09-08T04:10:01.578Z,0
2018-09-08T04:11:11.582Z,0
2018-09-08T04:12:21.720Z,0
2018-09-08T04:13:31.852Z,0
2018-09-08T04:14:41.977Z,0
2018-09-08T04:15:52.108Z,0
2018-09-08T04:17:01.968Z,0
2018-09-08T04:18:12.389Z,0
2018-09-08T04:19:22.529Z,0
2018-09-08T04:20:32.670Z,0
2018-09-08T04:21:42.811Z,0
2018-09-08T04:22:52.938Z,0
2018-09-08T04:24:03.004Z,0
2018-09-08T04:25:12.596Z,0
2018-09-08T04:26:22.455Z,0
2018-09-08T04:27:32.594Z,0
2018-09-08T04:28:42.723Z,0
2018-09-08T04:29:52.587Z,0
2018-09-08T04:31:02.170Z,0
2018-09-08T04:32:11.747Z,0
2018-09-08T04:33:21.882Z,0
2018-09-08T04:34:31.739Z,0
2018-09-08T04:35:41.867Z,0
2018-09-08T04:36:51.997Z,0
2018-09-08T04:38:01.910Z,0
2018-09-08T04:39:12.038Z,0
2018-09-08T04:40:21.889Z,0
2018-09-08T04:41:31.754Z,0
2018-09-08T04:42:41.884Z,0
2018-09-08T04:43:51.740Z,0
2018-09-08T04:45:01.873Z,0
2018-09-08T04:46:11.724Z,0
2018-09-08T04:47:21.849Z,0
2018-09-08T04:48:31.984Z,5
2018-09-08T04:49:41.887Z,5
2018-09-08T04:50:52.020Z,5
2018-09-08T04:52:01.602Z,5
2018-09-08T04:53:11.179Z,5
2018-09-08T04:54:20.487Z,5
2018-09-08T04:55:30.617Z,5
2018-09-08T04:56:40.748Z,5
2018-09-08T04:57:50.881Z,5
2018-09-08T04:59:01.010Z,5
2018-09-08T05:00:10.876Z,5
2018-09-08T05:01:20.735Z,5
2018-09-08T05:02:30.909Z,5
2018-09-08T05:03:41.048Z,5
2018-09-08T05:04:51.178Z,5
2018-09-08T05:06:01.307Z,5
2018-09-08T05:07:11.159Z,5
2018-09-08T05:08:21.013Z,0
2018-09-08T05:09:31.152Z,0
2018-09-08T05:10:41.279Z,5
2018-09-08T05:11:51.406Z,0
2018-09-08T05:13:01.534Z,0
2018-09-08T05:14:11.383Z,0
2018-09-08T05:15:21.243Z,0
2018-09-08T05:16:30.547Z,0
2018-09-08T05:17:40.132Z,0
2018-09-08T05:18:49.715Z,0
2018-09-08T05:19:59.840Z,0
2018-09-08T05:21:09.155Z,0
2018-09-08T05:22:19.022Z,5
2018-09-08T05:23:29.151Z,5
2018-09-08T05:24:39.008Z,5
2018-09-08T05:25:49.144Z,5
2018-09-08T05:26:58.998Z,5
2018-09-08T05:28:09.131Z,5
2018-09-08T05:29:18.981Z,5
2018-09-08T05:30:29.120Z,5
2018-09-08T05:31:38.972Z,5
2018-09-08T05:32:48.825Z,5
2018-09-08T05:33:58.678Z,5
2018-09-08T05:35:09.243Z,5
2018-09-08T05:36:19.016Z,5
2018-09-08T05:37:29.148Z,5
2018-09-08T05:38:39.277Z,5
2018-09-08T05:39:49.140Z,5
2018-09-08T05:40:58.449Z,5
2018-09-08T05:42:08.576Z,5
2018-09-08T05:43:18.432Z,5
2018-09-08T05:44:28.564Z,5
2018-09-08T05:45:38.421Z,5
2018-09-08T05:46:48.552Z,5
2018-09-08T05:47:58.404Z,5
2018-09-08T05:49:08.684Z,5
2018-09-08T05:50:18.262Z,10
2018-09-08T05:51:28.400Z,10
2018-09-08T05:52:38.537Z,10
2018-09-08T05:53:48.675Z,10
2018-09-08T05:54:58.536Z,10
2018-09-08T05:56:08.663Z,10
2018-09-08T05:57:18.518Z,10
2018-09-08T05:58:28.750Z,10
2018-09-08T05:59:38.612Z,10
2018-09-08T06:00:48.468Z,15
2018-09-08T06:01:58.322Z,15
2018-09-08T06:03:08.452Z,15
2018-09-08T06:04:18.307Z,15
2018-09-08T06:05:28.168Z,15
2018-09-08T06:06:38.301Z,15
2018-09-08T06:07:48.435Z,15
2018-09-08T06:08:58.566Z,15
2018-09-08T06:10:08.155Z,15
2018-09-08T06:11:18.021Z,15
2018-09-08T06:12:27.602Z,15
2018-09-08T06:13:37.740Z,15
2018-09-08T06:14:47.882Z,15
2018-09-08T06:15:57.733Z,15
2018-09-08T06:17:07.858Z,15
2018-09-08T06:18:18.053Z,15
2018-09-08T06:19:28.243Z,15
2018-09-08T06:20:38.422Z,20
2018-09-08T06:21:48.556Z,20
2018-09-08T06:22:58.137Z,20
2018-09-08T06:24:08.268Z,20
2018-09-08T06:25:18.146Z,20
2018-09-08T06:26:28.040Z,25
2018-09-08T06:27:37.405Z,25
2018-09-08T06:28:48.460Z,20
2018-09-08T06:29:58.590Z,20
2018-09-08T06:31:08.447Z,15
2018-09-08T06:32:18.304Z,20
2018-09-08T06:33:28.497Z,20
2018-09-08T06:34:38.412Z,20
2018-09-08T06:35:48.539Z,20
2018-09-08T06:36:58.407Z,20
2018-09-08T06:38:08.272Z,20
2018-09-08T06:39:18.408Z,20
2018-09-08T06:40:28.536Z,20
2018-09-08T06:41:38.387Z,20
2018-09-08T06:43:00.777Z,20
2018-09-08T06:44:10.307Z,20
2018-09-08T06:45:20.757Z,15
2018-09-08T06:46:30.645Z,20
2018-09-08T06:47:40.775Z,20
2018-09-08T06:48:50.633Z,20
2018-09-08T06:50:00.773Z,20
2018-09-08T06:51:10.628Z,20
2018-09-08T06:52:21.508Z,20
2018-09-08T06:53:31.500Z,15
2018-09-08T06:54:43.361Z,15
2018-09-08T06:55:53.493Z,15
2018-09-08T06:57:03.621Z,15
2018-09-08T06:58:12.936Z,15
2018-09-08T06:59:23.065Z,15
2018-09-08T07:00:33.196Z,15
2018-09-08T07:01:43.049Z,20
2018-09-08T07:02:53.178Z,20
2018-09-08T07:04:03.031Z,25
2018-09-08T07:05:12.621Z,20
2018-09-08T07:06:22.748Z,25
2018-09-08T07:07:32.941Z,30
2018-09-08T07:08:42.797Z,25
2018-09-08T07:09:52.659Z,25
2018-09-08T07:11:02.851Z,20
2018-09-08T07:12:12.703Z,20
2018-09-08T07:13:22.837Z,25
2018-09-08T07:14:32.420Z,25
2018-09-08T07:15:42.546Z,30
2018-09-08T07:16:52.673Z,30
2018-09-08T07:18:02.531Z,30
2018-09-08T07:19:12.384Z,25
2018-09-08T07:20:22.517Z,25
2018-09-08T07:21:32.375Z,25
2018-09-08T07:22:42.240Z,30
2018-09-08T07:23:51.541Z,25
2018-09-08T07:25:01.803Z,20
2018-09-08T07:26:11.054Z,20
2018-09-08T07:27:20.631Z,25
2018-09-08T07:28:30.763Z,25
2018-09-08T07:29:48.529Z,25
2018-09-08T07:30:58.587Z,40
2018-09-08T07:32:08.451Z,25
2018-09-08T07:33:18.307Z,25
2018-09-08T07:34:28.169Z,20
2018-09-08T07:35:38.301Z,20
2018-09-08T07:36:48.156Z,20
2018-09-08T07:37:58.293Z,20
2018-09-08T07:39:08.152Z,20
2018-09-08T07:40:18.280Z,20
2018-09-08T07:41:28.419Z,25
2018-09-08T07:42:38.011Z,25
2018-09-08T07:43:47.868Z,25
2018-09-08T07:44:57.731Z,25
2018-09-08T07:46:07.511Z,25
2018-09-08T07:47:17.672Z,25
2018-09-08T07:48:27.528Z,25
2018-09-08T07:49:37.655Z,25
2018-09-08T07:50:47.792Z,30
2018-09-08T07:51:57.928Z,30
2018-09-08T07:53:08.143Z,35
2018-09-08T07:54:18.146Z,30
2018-09-08T07:55:28.200Z,25
2018-09-08T07:56:38.079Z,25
2018-09-08T07:57:48.206Z,25
2018-09-08T07:58:58.063Z,30
2018-09-08T08:00:07.925Z,40
2018-09-08T08:01:17.780Z,40
2018-09-08T08:02:27.924Z,30
2018-09-08T08:03:37.788Z,20
2018-09-08T08:04:47.641Z,20
2018-09-08T08:05:57.491Z,20
2018-09-08T08:07:07.346Z,25
2018-09-08T08:08:17.477Z,30
2018-09-08T08:09:26.784Z,30
2018-09-08T08:10:36.689Z,35
2018-09-08T08:11:46.545Z,40
2018-09-08T08:12:56.683Z,35
2018-09-08T08:14:06.265Z,45
2018-09-08T08:15:16.407Z,40
2018-09-08T08:16:26.266Z,35
2018-09-08T08:17:36.398Z,25
2018-09-08T08:18:46.522Z,25
2018-09-08T08:19:56.105Z,20
2018-09-08T08:21:05.958Z,25
2018-09-08T08:22:16.094Z,30
2018-09-08T08:23:26.226Z,30
2018-09-08T08:24:36.083Z,25
2018-09-08T08:25:46.229Z,20
2018-09-08T08:26:56.079Z,25
2018-09-08T08:28:05.936Z,20
2018-09-08T08:29:16.074Z,20
2018-09-08T08:30:26.203Z,40
2018-09-08T08:31:36.055Z,45
2018-09-08T08:32:45.911Z,45
2018-09-08T08:33:56.053Z,35
2018-09-08T08:35:06.180Z,35
2018-09-08T08:36:15.759Z,35
2018-09-08T08:37:25.571Z,35
2018-09-08T08:38:35.704Z,40
2018-09-08T08:39:47.562Z,35
2018-09-08T08:40:57.692Z,40
2018-09-08T08:42:07.556Z,40
2018-09-08T08:43:17.691Z,40
2018-09-08T08:44:27.491Z,45
2018-09-08T08:45:37.388Z,60
2018-09-08T08:46:47.518Z,65
2018-09-08T08:47:57.644Z,50
2018-09-08T08:49:07.774Z,50
2018-09-08T08:50:17.623Z,55
2018-09-08T08:51:27.755Z,55
2018-09-08T08:52:37.878Z,45
2018-09-08T08:53:47.728Z,40
2018-09-08T08:54:57.864Z,45
2018-09-08T08:56:07.453Z,60
2018-09-08T08:57:17.036Z,55
2018-09-08T08:58:26.888Z,70
2018-09-08T08:59:37.008Z,80
2018-09-08T09:00:47.134Z,135
2018-09-08T09:01:57.005Z,90
2018-09-08T09:03:06.866Z,65
2018-09-08T09:04:16.993Z,50
2018-09-08T09:05:26.570Z,40
2018-09-08T09:06:36.704Z,40
2018-09-08T09:07:47.129Z,45
2018-09-08T09:08:59.711Z,50
2018-09-08T09:10:08.741Z,55
2018-09-08T09:11:18.863Z,55
2018-09-08T09:12:28.451Z,45
2018-09-08T09:13:39.094Z,40
2018-09-08T09:14:50.020Z,35
2018-09-08T09:15:59.868Z,35
2018-09-08T09:17:09.721Z,30
2018-09-08T09:18:19.631Z,35
2018-09-08T09:19:29.480Z,40
2018-09-08T09:20:39.607Z,40
2018-09-08T09:21:49.742Z,40
2018-09-08T09:22:59.595Z,40
2018-09-08T09:24:09.859Z,40
2018-09-08T09:25:19.875Z,35
2018-09-08T09:26:29.760Z,30
2018-09-08T09:27:39.617Z,25
2018-09-08T09:28:49.743Z,20
2018-09-08T09:29:59.872Z,20
2018-09-08T09:31:09.995Z,25
2018-09-08T09:32:19.848Z,30
2018-09-08T09:33:29.701Z,35
2018-09-08T09:34:39.559Z,40
2018-09-08T09:35:49.687Z,50
2018-09-08T09:36:59.542Z,60
2018-09-08T09:38:09.120Z,65
2018-09-08T09:39:18.980Z,80
2018-09-08T09:40:29.108Z,95
2018-09-08T09:41:38.687Z,105
2018-09-08T09:42:48.543Z,100
2018-09-08T09:43:58.400Z,100
2018-09-08T09:45:08.545Z,115
2018-09-08T09:46:18.124Z,125
2018-09-08T09:47:28.252Z,135
2018-09-08T09:48:38.115Z,145
2018-09-08T09:49:48.245Z,145
2018-09-08T09:50:58.383Z,140
2018-09-08T09:52:08.236Z,140
2018-09-08T09:53:19.006Z,145
2018-09-08T09:54:28.863Z,155
2018-09-08T09:55:38.176Z,160
2018-09-08T09:56:48.310Z,160
2018-09-08T09:57:57.887Z,155
2018-09-08T09:59:07.740Z,150
2018-09-08T10:00:17.889Z,150
2018-09-08T10:01:27.750Z,145
2018-09-08T10:02:37.881Z,140
2018-09-08T10:03:47.466Z,140
2018-09-08T10:04:57.599Z,135
2018-09-08T10:06:07.729Z,135
2018-09-08T10:07:17.906Z,140
2018-09-08T10:08:27.768Z,155
2018-09-08T10:09:37.624Z,160
2018-09-08T10:10:47.476Z,160
2018-09-08T10:11:57.362Z,165
2018-09-08T10:13:09.477Z,165
2018-09-08T10:14:18.778Z,165
2018-09-08T10:15:28.908Z,170
2018-09-08T10:16:38.484Z,180
2018-09-08T10:17:48.608Z,195
2018-09-08T10:18:58.460Z,205
2018-09-08T10:20:08.043Z,205
2018-09-08T10:21:17.897Z,195
2018-09-08T10:22:27.749Z,175
2018-09-08T10:23:37.945Z,160
2018-09-08T10:24:47.851Z,155
2018-09-08T10:25:57.159Z,170
2018-09-08T10:27:06.462Z,200
2018-09-08T10:28:16.602Z,230
2018-09-08T10:29:26.456Z,245
2018-09-08T10:30:35.709Z,210
2018-09-08T10:31:45.982Z,205
2018-09-08T10:32:56.211Z,200
2018-09-08T10:34:05.518Z,190
2018-09-08T10:35:15.650Z,180
2018-09-08T10:36:25.232Z,175
2018-09-08T10:37:35.092Z,180
2018-09-08T10:38:44.953Z,185
2018-09-08T10:39:55.079Z,185
2018-09-08T10:41:04.396Z,180
2018-09-08T10:42:13.977Z,185
2018-09-08T10:43:23.282Z,185
2018-09-08T10:44:33.138Z,185
2018-09-08T10:45:43.267Z,175
2018-09-08T10:46:53.128Z,165
2018-09-08T10:48:10.892Z,150
2018-09-08T10:49:20.475Z,140
2018-09-08T10:50:30.053Z,125
2018-09-08T10:51:39.642Z,115
2018-09-08T10:52:49.776Z,110
2018-09-08T10:53:59.638Z,95
2018-09-08T10:55:09.779Z,75
2018-09-08T10:56:19.909Z,75
2018-09-08T10:57:29.771Z,80
2018-09-08T10:58:39.905Z,85
2018-09-08T10:59:50.036Z,90
2018-09-08T11:01:00.165Z,90
2018-09-08T11:02:12.536Z,90
2018-09-08T11:03:22.592Z,90
2018-09-08T11:04:32.455Z,90
2018-09-08T11:05:42.600Z,85
2018-09-08T11:06:52.458Z,60
2018-09-08T11:08:02.587Z,40
2018-09-08T11:09:12.440Z,35
2018-09-08T11:10:22.294Z,30
2018-09-08T11:11:31.924Z,30
2018-09-08T11:12:42.054Z,35
2018-09-08T11:13:51.901Z,40
2018-09-08T11:15:01.780Z,45
2018-09-08T11:16:11.370Z,55
2018-09-08T11:17:21.503Z,60
2018-09-08T11:18:31.359Z,60
2018-09-08T11:19:41.488Z,65
2018-09-08T11:20:51.628Z,65
2018-09-08T11:22:01.481Z,55
2018-09-08T11:23:11.385Z,55
2018-09-08T11:24:21.238Z,60
2018-09-08T11:25:31.368Z,60
2018-09-08T11:26:41.501Z,55
2018-09-08T11:27:51.626Z,50
2018-09-08T11:29:01.821Z,50
2018-09-08T11:30:12.007Z,55
2018-09-08T11:31:21.602Z,70
2018-09-08T11:32:31.459Z,70
2018-09-08T11:33:41.594Z,75
2018-09-08T11:34:55.505Z,75
2018-09-08T11:36:05.106Z,65
2018-09-08T11:37:14.968Z,60
2018-09-08T11:38:25.044Z,55
2018-09-08T11:39:35.255Z,60
2018-09-08T11:40:45.114Z,65
2018-09-08T11:41:55.244Z,70
2018-09-08T11:43:04.824Z,65
2018-09-08T11:44:14.677Z,50
2018-09-08T11:45:24.254Z,35
2018-09-08T11:46:34.111Z,25
2018-09-08T11:47:44.256Z,25
2018-09-08T11:48:54.388Z,20
2018-09-08T11:50:04.242Z,20
2018-09-08T11:51:14.102Z,30
2018-09-08T11:52:24.007Z,30
2018-09-08T11:53:33.854Z,35
2018-09-08T11:54:43.985Z,40
2018-09-08T11:55:54.334Z,45
2018-09-08T11:57:03.915Z,40
2018-09-08T11:58:16.100Z,40
2018-09-08T11:59:25.731Z,45
2018-09-08T12:00:35.924Z,50
2018-09-08T12:01:46.057Z,70
2018-09-08T12:02:55.663Z,80
2018-09-08T12:04:05.897Z,90
2018-09-08T12:05:16.028Z,105
2018-09-08T12:06:26.492Z,110
2018-09-08T12:07:36.350Z,95
2018-09-08T12:08:45.930Z,85
2018-09-08T12:09:55.666Z,75
2018-09-08T12:11:05.809Z,75
2018-09-08T12:12:15.666Z,90
2018-09-08T12:13:25.804Z,85
2018-09-08T12:14:35.385Z,85
2018-09-08T12:15:45.564Z,90
2018-09-08T12:16:55.720Z,95
2018-09-08T12:18:05.855Z,100
2018-09-08T12:19:15.777Z,105
2018-09-08T12:20:25.686Z,95
2018-09-08T12:21:35.860Z,90
2018-09-08T12:22:45.172Z,105
2018-09-08T12:23:54.201Z,120
2018-09-08T12:25:04.052Z,125
2018-09-08T12:26:13.627Z,125
2018-09-08T12:27:23.203Z,135
2018-09-08T12:28:32.506Z,180
2018-09-08T12:29:42.361Z,245
2018-09-08T12:30:52.180Z,305
2018-09-08T12:32:01.199Z,345
2018-09-08T12:33:10.849Z,355
2018-09-08T12:34:20.983Z,355
2018-09-08T12:35:30.011Z,360
2018-09-08T12:36:40.136Z,355
2018-09-08T12:37:49.163Z,365
2018-09-08T12:38:59.174Z,340
2018-09-08T12:40:08.820Z,330
2018-09-08T12:41:18.397Z,320
2018-09-08T12:42:28.521Z,315
2018-09-08T12:43:38.644Z,350
2018-09-08T12:44:48.778Z,490
2018-09-08T12:45:59.074Z,500
2018-09-08T12:47:08.392Z,540
2018-09-08T12:48:18.245Z,485
2018-09-08T12:49:28.372Z,460
2018-09-08T12:50:38.502Z,435
2018-09-08T12:51:48.627Z,420
2018-09-08T12:52:58.209Z,400
2018-09-08T12:54:08.347Z,385
2018-09-08T12:55:18.224Z,390
2018-09-08T12:56:28.353Z,400
2018-09-08T12:57:38.480Z,410
2018-09-08T12:58:48.622Z,415
2018-09-08T12:59:58.482Z,410
2018-09-08T13:01:08.618Z,415
2018-09-08T13:02:18.477Z,495
2018-09-08T13:03:28.378Z,470
2018-09-08T13:04:38.247Z,460
2018-09-08T13:05:48.105Z,480
2018-09-08T13:06:57.971Z,510
2018-09-08T13:08:07.930Z,530
2018-09-08T13:09:18.061Z,540
2018-09-08T13:10:27.919Z,540
2018-09-08T13:11:38.047Z,545
2018-09-08T13:12:48.184Z,550
2018-09-08T13:13:58.043Z,530
2018-09-08T13:15:08.181Z,540
2018-09-08T13:16:17.772Z,555
2018-09-08T13:17:27.633Z,575
2018-09-08T13:18:37.487Z,515
2018-09-08T13:19:47.626Z,490
2018-09-08T13:20:57.756Z,475
2018-09-08T13:22:07.618Z,450
2018-09-08T13:23:17.754Z,425
2018-09-08T13:24:27.908Z,410
2018-09-08T13:25:37.866Z,410
2018-09-08T13:26:47.998Z,410
2018-09-08T13:27:57.301Z,405
2018-09-08T13:29:06.627Z,405
2018-09-08T13:30:16.487Z,395
2018-09-08T13:31:26.356Z,385
2018-09-08T13:32:36.489Z,360
2018-09-08T13:33:46.552Z,355
2018-09-08T13:34:56.465Z,355
2018-09-08T13:36:06.595Z,380
2018-09-08T13:37:16.448Z,395
2018-09-08T13:38:26.334Z,445
2018-09-08T13:39:35.937Z,465
2018-09-08T13:40:45.863Z,490
2018-09-08T13:41:55.724Z,455
2018-09-08T13:43:05.926Z,390
2018-09-08T13:44:16.061Z,430
2018-09-08T13:45:25.651Z,490
2018-09-08T13:46:35.789Z,555
2018-09-08T13:47:45.379Z,550
2018-09-08T13:48:55.509Z,540
2018-09-08T13:50:05.646Z,610
2018-09-08T13:51:15.514Z,620
2018-09-08T13:52:25.368Z,590
2018-09-08T13:53:34.684Z,545
2018-09-08T13:54:44.820Z,515
2018-09-08T13:55:54.955Z,455
2018-09-08T13:57:04.561Z,430
2018-09-08T13:58:14.700Z,520
2018-09-08T13:59:24.847Z,580
2018-09-08T14:00:34.981Z,430
2018-09-08T14:01:45.118Z,370
2018-09-08T14:02:55.253Z,350
2018-09-08T14:04:05.177Z,390
2018-09-08T14:05:15.380Z,425
2018-09-08T14:06:25.293Z,455
2018-09-08T14:07:35.426Z,340
2018-09-08T14:08:45.278Z,340
2018-09-08T14:09:55.410Z,355
2018-09-08T14:11:05.554Z,360
2018-09-08T14:12:18.237Z,485
2018-09-08T14:13:28.096Z,715
2018-09-08T14:14:38.014Z,430
2018-09-08T14:15:47.877Z,500
2018-09-08T14:16:57.732Z,795
2018-09-08T14:18:07.317Z,750
2018-09-08T14:19:17.172Z,850
2018-09-08T14:20:26.757Z,400
2018-09-08T14:21:36.612Z,365
2018-09-08T14:22:46.191Z,370
2018-09-08T14:23:55.826Z,440
2018-09-08T14:25:05.414Z,775
2018-09-08T14:26:15.267Z,505
2018-09-08T14:27:24.852Z,1855
2018-09-08T14:28:34.943Z,2135
2018-09-08T14:29:45.190Z,2125
2018-09-08T14:30:55.046Z,2265
2018-09-08T14:32:05.182Z,2260
2018-09-08T14:33:14.768Z,2300
2018-09-08T14:34:24.632Z,2180
2018-09-08T14:35:34.547Z,2255
2018-09-08T14:36:44.947Z,2280
2018-09-08T14:37:55.129Z,2270
2018-09-08T14:39:04.717Z,2200
2018-09-08T14:40:14.354Z,1620
2018-09-08T14:41:24.275Z,1875
2018-09-08T14:42:34.136Z,2165
2018-09-08T14:43:44.007Z,2115
2018-09-08T14:44:54.142Z,2150
2018-09-08T14:46:04.288Z,2225
2018-09-08T14:47:14.206Z,2160
2018-09-08T14:48:24.355Z,2160
2018-09-08T14:49:33.961Z,2075
2018-09-08T14:50:43.836Z,1910
2018-09-08T14:51:53.703Z,1955
2018-09-08T14:53:03.625Z,1955
2018-09-08T14:54:13.772Z,2085
2018-09-08T14:55:23.633Z,2120
2018-09-08T14:56:33.526Z,2070
2018-09-08T14:57:43.120Z,2075
2018-09-08T14:58:53.353Z,2080
2018-09-08T15:00:03.498Z,2075
2018-09-08T15:01:13.375Z,2010
2018-09-08T15:02:23.243Z,1920
2018-09-08T15:03:33.391Z,1865
2018-09-08T15:04:44.133Z,1900
2018-09-08T15:05:53.822Z,1955
2018-09-08T15:07:03.967Z,1940
2018-09-08T15:08:13.559Z,1895
2018-09-08T15:09:23.698Z,1875
2018-09-08T15:10:33.896Z,1845
2018-09-08T15:11:43.766Z,1825
2018-09-08T15:12:53.911Z,1855
2018-09-08T15:14:03.776Z,1880
2018-09-08T15:15:13.934Z,1815
2018-09-08T15:16:23.808Z,1820
2018-09-08T15:17:33.945Z,1840
2018-09-08T15:18:44.084Z,1810
2018-09-08T15:19:53.680Z,1785
2018-09-08T15:21:03.273Z,1365
2018-09-08T15:22:12.861Z,1540
2018-09-08T15:23:23.000Z,1655
2018-09-08T15:24:33.508Z,1455
2018-09-08T15:25:43.713Z,945
2018-09-08T15:26:53.585Z,330
2018-09-08T15:28:03.726Z,335
2018-09-08T15:29:13.869Z,700
2018-09-08T15:30:23.746Z,830
2018-09-08T15:31:33.888Z,610
2018-09-08T15:32:44.081Z,295
2018-09-08T15:33:54.011Z,270
2018-09-08T15:35:03.606Z,255
2018-09-08T15:36:13.466Z,255
2018-09-08T15:37:23.603Z,255
2018-09-08T15:38:33.738Z,275
2018-09-08T15:39:43.605Z,275
2018-09-08T15:40:53.191Z,275
2018-09-08T15:42:03.057Z,280
2018-09-08T15:43:12.919Z,290
2018-09-08T15:44:23.056Z,300
2018-09-08T15:45:33.020Z,295
2018-09-08T15:46:43.224Z,285
2018-09-08T15:47:53.093Z,270
2018-09-08T15:49:02.680Z,260
2018-09-08T15:50:12.543Z,240
2018-09-08T15:51:22.751Z,235
2018-09-08T15:52:32.957Z,230
2018-09-08T15:53:42.825Z,230
2018-09-08T15:54:52.687Z,230
2018-09-08T15:56:02.547Z,235
2018-09-08T15:57:12.734Z,235
2018-09-08T15:58:22.905Z,230
2018-09-08T15:59:32.244Z,230
2018-09-08T16:00:42.103Z,235
2018-09-08T16:01:51.970Z,230
2018-09-08T16:03:06.340Z,230
2018-09-08T16:04:16.532Z,220
2018-09-08T16:05:26.422Z,215
2018-09-08T16:06:36.565Z,215
2018-09-08T16:07:46.705Z,220
2018-09-08T16:08:56.614Z,225
2018-09-08T16:10:06.204Z,225
2018-09-08T16:11:15.811Z,215
2018-09-08T16:12:25.652Z,215
2018-09-08T16:13:35.506Z,205
2018-09-08T16:14:45.368Z,205
2018-09-08T16:15:55.496Z,200
2018-09-08T16:17:04.807Z,200
2018-09-08T16:18:14.666Z,210
2018-09-08T16:19:24.248Z,215
2018-09-08T16:20:34.397Z,215
2018-09-08T16:21:44.250Z,205
2018-09-08T16:22:53.831Z,200
2018-09-08T16:24:03.958Z,190
2018-09-08T16:25:14.103Z,200
2018-09-08T16:26:24.031Z,200
2018-09-08T16:27:33.613Z,190
2018-09-08T16:28:44.239Z,170
2018-09-08T16:29:54.514Z,150
2018-09-08T16:31:04.370Z,140
2018-09-08T16:32:13.956Z,150
2018-09-08T16:33:23.535Z,170
2018-09-08T16:34:33.442Z,180
2018-09-08T16:35:43.301Z,165
2018-09-08T16:36:53.176Z,140